createdAt,value
2023-03-25T00:02:17.896Z,100453.97
2023-03-25T00:04:51.141Z,100453.97
2023-03-25T00:07:23.228Z,100458.69
2023-03-25T00:09:51.739Z,100452.78
2023-03-25T00:12:23.348Z,100457.84
2023-03-25T00:14:55.854Z,100464.91
2023-03-25T00:17:31.889Z,100457.84
2023-03-25T00:20:02.690Z,100446.25
2023-03-25T00:22:41.819Z,100457.41
2023-03-25T00:25:19.591Z,100453.22
2023-03-25T00:27:49.136Z,100453.22
2023-03-25T00:30:20.397Z,100456.41
2023-03-25T00:32:53.236Z,100447.63
2023-03-25T00:35:22.803Z,100453.13
2023-03-25T00:38:00.578Z,100462.75
2023-03-25T00:40:42.628Z,100456.41
2023-03-25T00:43:11.615Z,100464.59
2023-03-25T00:45:40.709Z,100463.72
2023-03-25T00:48:09.127Z,100462.03
2023-03-25T00:50:37.751Z,100461.25
2023-03-25T00:53:10.027Z,100466.72
2023-03-25T00:55:41.716Z,100464.13
2023-03-25T00:58:10.465Z,100456.22
2023-03-25T01:00:39.854Z,100453.19
2023-03-25T01:03:10.576Z,100463.84
2023-03-25T01:05:42.122Z,100461.03
2023-03-25T01:08:10.934Z,100455.69
2023-03-25T01:10:40.760Z,100452.03
2023-03-25T01:13:10.849Z,100445.06
2023-03-25T01:15:42.901Z,100449.66
2023-03-25T01:18:11.208Z,100442.69
2023-03-25T01:20:40.905Z,100449.31
2023-03-25T01:23:12.997Z,100450.94
2023-03-25T01:25:41.322Z,100442.91
2023-03-25T01:28:11.567Z,100454.50
2023-03-25T01:30:39.852Z,100446.00
2023-03-25T01:33:12.095Z,100439.03
2023-03-25T01:35:43.736Z,100448.25
2023-03-25T01:38:13.590Z,100438.47
2023-03-25T01:40:42.336Z,100445.75
2023-03-25T01:43:13.995Z,100448.00
2023-03-25T01:45:45.580Z,100447.13
2023-03-25T01:48:33.417Z,100447.13
2023-03-25T01:51:05.624Z,100444.69
2023-03-25T01:53:34.178Z,100446.78
2023-03-25T01:56:07.230Z,100447.25
2023-03-25T01:58:37.944Z,100445.66
2023-03-25T02:01:13.990Z,100440.69
2023-03-25T02:03:46.753Z,100446.94
2023-03-25T02:06:39.916Z,100451.53
2023-03-25T02:09:12.652Z,100443.81
2023-03-25T02:11:41.465Z,100446.69
2023-03-25T02:14:16.538Z,100448.69
2023-03-25T02:17:01.593Z,100447.19
2023-03-25T02:20:09.897Z,100447.41
2023-03-25T02:23:08.329Z,100444.13
2023-03-25T02:25:59.370Z,100439.09
2023-03-25T02:28:43.051Z,100440.16
2023-03-25T02:31:37.107Z,100436.81
2023-03-25T02:34:30.035Z,100438.84
2023-03-25T02:37:23.402Z,100440.09
2023-03-25T02:40:07.562Z,100434.19
2023-03-25T02:42:55.933Z,100434.47
2023-03-25T02:45:33.390Z,100428.38
2023-03-25T02:48:06.028Z,100429.41
2023-03-25T02:50:41.537Z,100432.31
2023-03-25T02:53:14.667Z,100432.63
2023-03-25T02:55:47.443Z,100435.38
2023-03-25T02:58:18.540Z,100433.66
2023-03-25T03:00:52.570Z,100433.84
2023-03-25T03:03:23.053Z,100441.97
2023-03-25T03:05:52.611Z,100437.78
2023-03-25T03:08:51.622Z,100437.00
2023-03-25T03:11:43.293Z,100433.69
2023-03-25T03:14:31.295Z,100433.75
2023-03-25T03:17:18.842Z,100434.63
2023-03-25T03:20:28.661Z,100435.09
2023-03-25T03:23:11.364Z,100433.28
2023-03-25T03:25:51.567Z,100430.72
2023-03-25T03:28:38.318Z,100432.25
2023-03-25T03:31:48.822Z,100434.69
2023-03-25T03:34:19.162Z,100438.72
2023-03-25T03:36:51.397Z,100445.59
2023-03-25T03:39:22.247Z,100443.47
2023-03-25T03:41:54.521Z,100438.41
2023-03-25T03:44:27.090Z,100439.63
2023-03-25T03:47:24.788Z,100436.22
2023-03-25T03:50:16.502Z,100445.31
2023-03-25T03:52:50.924Z,100446.72
2023-03-25T03:55:56.848Z,100449.09
2023-03-25T03:58:53.723Z,100441.84
2023-03-25T04:01:35.722Z,100438.59
2023-03-25T04:04:06.609Z,100439.41
2023-03-25T04:06:42.161Z,100442.94
2023-03-25T04:09:28.708Z,100439.63
2023-03-25T04:12:08.272Z,100437.16
2023-03-25T04:14:41.727Z,100440.03
2023-03-25T04:17:11.655Z,100436.69
2023-03-25T04:19:39.988Z,100443.22
2023-03-25T04:22:18.869Z,100437.13
2023-03-25T04:24:50.282Z,100441.06
2023-03-25T04:27:20.539Z,100445.72
2023-03-25T04:29:49.935Z,100441.09
2023-03-25T04:32:18.648Z,100447.94
2023-03-25T04:34:47.538Z,100448.81
2023-03-25T04:37:17.309Z,100440.59
2023-03-25T04:39:45.509Z,100437.44
2023-03-25T04:42:19.233Z,100434.47
2023-03-25T04:44:48.435Z,100433.41
2023-03-25T04:47:28.041Z,100434.28
2023-03-25T04:49:56.227Z,100446.25
2023-03-25T04:52:24.953Z,100454.91
2023-03-25T04:54:53.912Z,100443.53
2023-03-25T04:57:22.914Z,100451.59
2023-03-25T04:59:51.854Z,100450.63
2023-03-25T05:02:21.189Z,100447.06
2023-03-25T05:04:50.469Z,100454.31
2023-03-25T05:07:19.872Z,100456.75
2023-03-25T05:09:49.068Z,100446.38
2023-03-25T05:12:17.714Z,100442.31
2023-03-25T05:14:45.873Z,100444.13
2023-03-25T05:17:14.093Z,100434.13
2023-03-25T05:19:46.584Z,100434.22
2023-03-25T05:22:15.509Z,100433.19
2023-03-25T05:24:45.525Z,100435.22
2023-03-25T05:27:20.506Z,100439.47
2023-03-25T05:29:49.005Z,100436.59
2023-03-25T05:32:18.192Z,100443.50
2023-03-25T05:34:47.481Z,100439.22
2023-03-25T05:37:15.998Z,100429.41
2023-03-25T05:39:46.827Z,100430.19
2023-03-25T05:42:23.250Z,100424.97
2023-03-25T05:44:55.529Z,100434.00
2023-03-25T05:47:25.465Z,100431.63
2023-03-25T05:49:54.706Z,100420.97
2023-03-25T05:52:24.938Z,100426.63
2023-03-25T05:54:52.864Z,100418.22
2023-03-25T05:57:22.950Z,100419.31
2023-03-25T05:59:51.589Z,100418.50
2023-03-25T06:02:20.094Z,100418.03
2023-03-25T06:04:51.718Z,100430.03
2023-03-25T06:07:22.766Z,100422.78
2023-03-25T06:09:56.583Z,100428.88
2023-03-25T06:12:27.853Z,100438.13
2023-03-25T06:14:58.921Z,100439.13
2023-03-25T06:17:39.246Z,100435.84
2023-03-25T06:20:12.881Z,100434.03
2023-03-25T06:22:45.605Z,100441.81
2023-03-25T06:25:20.147Z,100437.25
2023-03-25T06:27:50.728Z,100431.41
2023-03-25T06:30:22.327Z,100440.75
2023-03-25T06:33:11.319Z,100448.31
2023-03-25T06:35:43.049Z,100441.28
2023-03-25T06:38:11.209Z,100444.00
2023-03-25T06:40:39.859Z,100442.81
2023-03-25T06:43:08.077Z,100437.97
2023-03-25T06:45:36.640Z,100440.28
2023-03-25T06:48:07.240Z,100439.66
2023-03-25T06:50:36.300Z,100434.25
2023-03-25T06:53:04.664Z,100428.03
2023-03-25T06:55:33.573Z,100425.06
2023-03-25T06:58:01.703Z,100427.50
2023-03-25T07:00:29.963Z,100422.81
2023-03-25T07:03:01.999Z,100419.03
2023-03-25T07:05:30.253Z,100426.94
2023-03-25T07:08:00.244Z,100425.22
2023-03-25T07:10:32.896Z,100423.56
2023-03-25T07:13:08.597Z,100424.09
2023-03-25T07:15:36.836Z,100422.84
2023-03-25T07:18:05.189Z,100424.66
2023-03-25T07:20:35.678Z,100420.53
2023-03-25T07:23:04.818Z,100422.00
2023-03-25T07:25:32.983Z,100419.00
2023-03-25T07:28:00.902Z,100419.31
2023-03-25T07:30:29.137Z,100425.13
2023-03-25T07:33:00.741Z,100418.34
2023-03-25T07:35:29.420Z,100417.31
2023-03-25T07:37:58.348Z,100420.69
2023-03-25T07:40:31.932Z,100413.47
2023-03-25T07:43:00.414Z,100410.13
2023-03-25T07:45:28.891Z,100413.88
2023-03-25T07:48:02.511Z,100406.97
2023-03-25T07:50:34.516Z,100408.13
2023-03-25T07:53:03.542Z,100402.31
2023-03-25T07:55:31.628Z,100407.13
2023-03-25T07:58:02.552Z,100406.28
2023-03-25T08:00:31.282Z,100404.13
2023-03-25T08:03:00.051Z,100400.84
2023-03-25T08:05:28.344Z,100395.34
2023-03-25T08:08:00.426Z,100390.31
2023-03-25T08:10:28.774Z,100398.78
2023-03-25T08:12:57.119Z,100394.75
2023-03-25T08:15:25.234Z,100396.91
2023-03-25T08:17:54.336Z,100402.97
2023-03-25T08:20:25.773Z,100391.09
2023-03-25T08:22:57.697Z,100385.59
2023-03-25T08:25:27.010Z,100392.81
2023-03-25T08:27:59.002Z,100393.53
2023-03-25T08:30:27.478Z,100386.81
2023-03-25T08:32:55.901Z,100389.06
2023-03-25T08:35:44.070Z,100381.56
2023-03-25T08:38:13.764Z,100371.66
2023-03-25T08:40:44.157Z,100387.59
2023-03-25T08:43:12.291Z,100377.16
2023-03-25T08:45:45.239Z,100389.00
2023-03-25T08:48:16.250Z,100385.44
2023-03-25T08:50:47.238Z,100388.22
2023-03-25T08:53:15.966Z,100394.19
2023-03-25T08:55:44.344Z,100386.78
2023-03-25T08:58:14.576Z,100379.22
2023-03-25T09:00:43.522Z,100390.03
2023-03-25T09:03:12.247Z,100384.00
2023-03-25T09:05:43.147Z,100381.69
2023-03-25T09:08:12.795Z,100379.88
2023-03-25T09:10:41.384Z,100378.31
2023-03-25T09:13:10.037Z,100377.75
2023-03-25T09:15:39.218Z,100382.88
2023-03-25T09:18:10.695Z,100376.44
2023-03-25T09:20:39.631Z,100380.69
2023-03-25T09:23:09.950Z,100368.72
2023-03-25T09:25:46.653Z,100382.63
2023-03-25T09:28:15.389Z,100368.66
2023-03-25T09:30:43.872Z,100373.84
2023-03-25T09:33:12.556Z,100388.69
2023-03-25T09:35:41.798Z,100372.53
2023-03-25T09:38:12.461Z,100374.41
2023-03-25T09:40:44.627Z,100385.16
2023-03-25T09:43:35.244Z,100386.31
2023-03-25T09:46:04.154Z,100378.00
2023-03-25T09:48:44.000Z,100385.91
2023-03-25T09:51:14.904Z,100382.88
2023-03-25T09:54:20.173Z,100379.78
2023-03-25T09:56:48.951Z,100380.72
2023-03-25T09:59:22.618Z,100374.34
2023-03-25T10:02:06.209Z,100370.56
2023-03-25T10:04:50.358Z,100373.81
2023-03-25T10:07:40.547Z,100368.34
2023-03-25T10:10:33.011Z,100369.56
2023-03-25T10:13:28.755Z,100364.34
2023-03-25T10:16:19.022Z,100365.13
2023-03-25T10:19:23.179Z,100359.44
2023-03-25T10:21:51.190Z,100359.97
2023-03-25T10:24:45.758Z,100359.59
2023-03-25T10:27:28.086Z,100357.84
2023-03-25T10:30:01.650Z,100354.78
2023-03-25T10:32:40.488Z,100342.41
2023-03-25T10:35:32.608Z,100337.31
2023-03-25T10:38:13.909Z,100349.75
2023-03-25T10:40:50.597Z,100345.38
2023-03-25T10:43:31.757Z,100344.34
2023-03-25T10:46:47.995Z,100334.69
2023-03-25T10:49:22.631Z,100335.31
2023-03-25T10:51:57.331Z,100329.81
2023-03-25T10:54:33.585Z,100324.31
2023-03-25T10:57:08.603Z,100323.19
2023-03-25T11:00:07.056Z,100318.59
2023-03-25T11:02:43.710Z,100298.81
2023-03-25T11:05:21.930Z,100302.75
2023-03-25T11:08:11.626Z,100301.69
2023-03-25T11:10:57.872Z,100284.78
2023-03-25T11:13:31.012Z,100284.19
2023-03-25T11:16:04.082Z,100274.47
2023-03-25T11:18:37.408Z,100271.91
2023-03-25T11:21:17.920Z,100263.91
2023-03-25T11:23:51.208Z,100270.06
2023-03-25T11:26:21.892Z,100271.25
2023-03-25T11:28:52.815Z,100257.16
2023-03-25T11:31:29.509Z,100251.25
2023-03-25T11:34:13.187Z,100250.94
2023-03-25T11:37:10.050Z,100245.84
2023-03-25T11:39:40.719Z,100239.53
2023-03-25T11:42:37.656Z,100229.44
2023-03-25T11:45:06.779Z,100236.94
2023-03-25T11:47:41.009Z,100221.47
2023-03-25T11:50:20.727Z,100221.72
2023-03-25T11:52:50.945Z,100222.22
2023-03-25T11:55:31.684Z,100213.50
2023-03-25T11:58:02.438Z,100208.06
2023-03-25T12:00:39.311Z,100198.69
2023-03-25T12:03:14.609Z,100197.84
2023-03-25T12:06:02.377Z,100203.66
2023-03-25T12:08:58.824Z,100201.97
2023-03-25T12:11:37.482Z,100199.59
2023-03-25T12:14:18.455Z,100203.16
2023-03-25T12:16:58.522Z,100203.53
2023-03-25T12:19:42.797Z,100195.69
2023-03-25T12:22:16.514Z,100193.16
2023-03-25T12:25:07.459Z,100190.78
2023-03-25T12:28:05.585Z,100178.53
2023-03-25T12:30:36.644Z,100184.16
2023-03-25T12:33:33.072Z,100175.97
2023-03-25T12:36:12.841Z,100179.31
2023-03-25T12:39:24.923Z,100181.84
2023-03-25T12:42:13.130Z,100178.06
2023-03-25T12:44:53.734Z,100175.31
2023-03-25T12:47:26.329Z,100176.13
2023-03-25T12:50:18.678Z,100179.72
2023-03-25T12:53:22.306Z,100177.31
2023-03-25T12:56:16.213Z,100171.75
2023-03-25T12:59:10.625Z,100168.97
2023-03-25T13:02:26.390Z,100163.94
2023-03-25T13:05:06.855Z,100169.56
2023-03-25T13:07:36.894Z,100152.94
2023-03-25T13:10:27.937Z,100149.91
2023-03-25T13:12:59.344Z,100146.88
2023-03-25T13:15:38.158Z,100145.34
2023-03-25T13:18:12.036Z,100138.91
2023-03-25T13:20:52.574Z,100140.25
2023-03-25T13:23:23.954Z,100136.19
2023-03-25T13:25:57.908Z,100139.06
2023-03-25T13:28:49.634Z,100135.81
2023-03-25T13:31:21.628Z,100137.19
2023-03-25T13:34:07.571Z,100134.09
2023-03-25T13:36:51.569Z,100141.09
2023-03-25T13:39:23.748Z,100138.47
2023-03-25T13:42:07.283Z,100137.28
2023-03-25T13:44:40.389Z,100131.13
2023-03-25T13:47:38.131Z,100132.22
2023-03-25T13:50:29.843Z,100122.69
2023-03-25T13:53:28.314Z,100122.66
2023-03-25T13:56:11.981Z,100120.81
2023-03-25T13:59:05.538Z,100111.00
2023-03-25T14:02:03.578Z,100110.19
2023-03-25T14:04:48.333Z,100114.84
2023-03-25T14:08:09.851Z,100103.59
2023-03-25T14:11:07.626Z,100099.88
2023-03-25T14:13:43.525Z,100088.13
2023-03-25T14:16:16.442Z,100092.53
2023-03-25T14:18:47.407Z,100089.09
2023-03-25T14:21:22.423Z,100097.94
2023-03-25T14:24:08.450Z,100079.25
2023-03-25T14:26:38.143Z,100073.44
2023-03-25T14:29:11.448Z,100078.88
2023-03-25T14:31:39.794Z,100076.03
2023-03-25T14:34:11.037Z,100075.25
2023-03-25T14:36:41.221Z,100070.22
2023-03-25T14:39:30.967Z,100074.66
2023-03-25T14:42:08.867Z,100079.59
2023-03-25T14:44:49.979Z,100073.59
2023-03-25T14:47:28.080Z,100071.63
2023-03-25T14:50:21.002Z,100066.97
2023-03-25T14:52:52.257Z,100055.59
2023-03-25T14:55:24.299Z,100056.53
2023-03-25T14:57:59.133Z,100060.25
2023-03-25T15:00:34.739Z,100053.09
2023-03-25T15:03:13.154Z,100052.47
2023-03-25T15:05:42.671Z,100054.09
2023-03-25T15:08:31.826Z,100050.84
2023-03-25T15:11:06.414Z,100049.41
2023-03-25T15:13:53.091Z,100040.03
2023-03-25T15:16:34.329Z,100046.75
2023-03-25T15:19:11.493Z,100045.59
2023-03-25T15:21:58.676Z,100048.03
2023-03-25T15:24:35.254Z,100046.09
2023-03-25T15:27:28.738Z,100050.69
2023-03-25T15:29:56.861Z,100045.03
2023-03-25T15:32:44.537Z,100051.94
2023-03-25T15:35:37.857Z,100051.28
2023-03-25T15:38:27.681Z,100036.41
2023-03-25T15:41:23.204Z,100036.75
2023-03-25T15:44:18.535Z,100051.00
2023-03-25T15:47:05.081Z,100042.59
2023-03-25T15:50:04.167Z,100041.81
2023-03-25T15:52:38.165Z,100037.84
2023-03-25T15:55:10.110Z,100027.78
2023-03-25T15:57:43.552Z,100047.94
2023-03-25T16:00:26.641Z,100043.41
2023-03-25T16:03:05.001Z,100042.53
2023-03-25T16:05:39.748Z,100046.50
2023-03-25T16:08:16.094Z,100042.69
2023-03-25T16:10:52.494Z,100035.31
2023-03-25T16:13:28.982Z,100042.97
2023-03-25T16:16:10.345Z,100038.84
2023-03-25T16:18:44.625Z,100022.09
2023-03-25T16:21:13.465Z,100027.34
2023-03-25T16:23:42.345Z,100024.91
2023-03-25T16:26:16.625Z,100024.75
2023-03-25T16:28:45.191Z,100040.94
2023-03-25T16:31:41.363Z,100033.00
2023-03-25T16:34:16.213Z,100036.97
2023-03-25T16:36:46.222Z,100038.38
2023-03-25T16:39:15.869Z,100041.19
2023-03-25T16:41:48.725Z,100036.53
2023-03-25T16:44:20.819Z,100035.22
2023-03-25T16:46:51.070Z,100036.22
2023-03-25T16:49:48.908Z,100043.31
2023-03-25T16:52:21.188Z,100042.88
2023-03-25T16:54:52.714Z,100047.16
2023-03-25T16:57:24.985Z,100051.09
2023-03-25T16:59:55.002Z,100061.72
2023-03-25T17:02:42.510Z,100062.84
2023-03-25T17:05:22.701Z,100065.13
2023-03-25T17:08:08.696Z,100059.44
2023-03-25T17:10:53.512Z,100062.22
2023-03-25T17:13:52.422Z,100065.69
2023-03-25T17:16:21.743Z,100072.22
2023-03-25T17:18:54.403Z,100070.88
2023-03-25T17:21:30.572Z,100068.69
2023-03-25T17:24:06.582Z,100074.63
2023-03-25T17:26:58.762Z,100079.94
2023-03-25T17:29:29.699Z,100076.47
2023-03-25T17:31:59.624Z,100077.09
2023-03-25T17:34:32.571Z,100078.47
2023-03-25T17:37:06.166Z,100085.94
2023-03-25T17:39:34.927Z,100084.16
2023-03-25T17:42:03.448Z,100077.69
2023-03-25T17:44:37.897Z,100083.00
2023-03-25T17:47:08.595Z,100077.41
2023-03-25T17:49:38.867Z,100083.00
2023-03-25T17:52:10.547Z,100075.72
2023-03-25T17:54:39.705Z,100085.16
2023-03-25T17:57:13.901Z,100078.56
2023-03-25T17:59:44.205Z,100079.66
2023-03-25T18:02:16.861Z,100086.03
2023-03-25T18:04:46.236Z,100085.88
2023-03-25T18:07:14.920Z,100080.16
2023-03-25T18:09:43.905Z,100091.28
2023-03-25T18:12:15.362Z,100082.97
2023-03-25T18:14:45.473Z,100081.50
2023-03-25T18:17:13.828Z,100087.22
2023-03-25T18:19:50.698Z,100089.78
2023-03-25T18:22:20.524Z,100083.06
2023-03-25T18:24:49.632Z,100084.28
2023-03-25T18:27:30.684Z,100080.72
2023-03-25T18:30:29.237Z,100080.63
2023-03-25T18:32:58.200Z,100068.41
2023-03-25T18:35:26.599Z,100073.63
2023-03-25T18:37:55.892Z,100072.28
2023-03-25T18:40:32.111Z,100069.81
2023-03-25T18:43:01.104Z,100069.19
2023-03-25T18:45:29.680Z,100065.03
2023-03-25T18:47:59.658Z,100065.88
2023-03-25T18:50:36.896Z,100063.47
2023-03-25T18:53:10.533Z,100071.34
2023-03-25T18:55:39.206Z,100060.72
2023-03-25T18:58:11.451Z,100066.47
2023-03-25T19:00:42.202Z,100067.03
2023-03-25T19:03:10.068Z,100072.53
2023-03-25T19:05:40.923Z,100068.38
2023-03-25T19:08:23.922Z,100067.72
2023-03-25T19:10:57.374Z,100067.09
2023-03-25T19:13:35.929Z,100074.78
2023-03-25T19:16:04.484Z,100054.44
2023-03-25T19:18:36.612Z,100056.50
2023-03-25T19:21:16.091Z,100059.81
2023-03-25T19:23:44.858Z,100059.41
2023-03-25T19:26:13.822Z,100057.75
2023-03-25T19:28:50.143Z,100050.56
2023-03-25T19:31:19.552Z,100041.56
2023-03-25T19:33:58.828Z,100040.69
2023-03-25T19:36:26.922Z,100034.56
2023-03-25T19:39:00.507Z,100035.44
2023-03-25T19:41:29.575Z,100032.75
2023-03-25T19:43:58.211Z,100027.66
2023-03-25T19:46:29.509Z,100033.28
2023-03-25T19:49:00.569Z,100027.06
2023-03-25T19:51:28.827Z,100027.31
2023-03-25T19:54:01.364Z,100023.19
2023-03-25T19:56:30.118Z,100036.00
2023-03-25T19:58:58.471Z,100031.41
2023-03-25T20:01:27.200Z,100027.38
2023-03-25T20:03:57.491Z,100026.06
2023-03-25T20:06:29.415Z,100027.16
2023-03-25T20:08:57.955Z,100030.09
2023-03-25T20:11:26.349Z,100031.41
2023-03-25T20:14:06.916Z,100042.31
2023-03-25T20:16:37.194Z,100034.00
2023-03-25T20:19:05.391Z,100036.19
2023-03-25T20:21:37.476Z,100037.78
2023-03-25T20:24:09.359Z,100034.00
2023-03-25T20:26:38.488Z,100034.84
2023-03-25T20:29:09.062Z,100030.47
2023-03-25T20:31:37.482Z,100027.66
2023-03-25T20:34:06.944Z,100019.59
2023-03-25T20:36:36.795Z,100020.81
2023-03-25T20:39:08.134Z,100017.38
2023-03-25T20:41:38.302Z,100022.28
2023-03-25T20:44:06.695Z,100021.06
2023-03-25T20:46:39.379Z,100016.78
2023-03-25T20:49:17.034Z,100001.63
2023-03-25T20:51:48.775Z,99999.81
2023-03-25T20:54:17.463Z,100004.56
2023-03-25T20:56:48.707Z,99999.94
2023-03-25T20:59:18.304Z,100002.63
2023-03-25T21:01:51.151Z,99999.19
2023-03-25T21:04:21.270Z,99982.47
2023-03-25T21:06:53.620Z,99991.38
2023-03-25T21:09:22.304Z,99987.00
2023-03-25T21:11:51.307Z,99983.59
2023-03-25T21:14:19.682Z,99985.78
2023-03-25T21:16:51.067Z,99982.75
2023-03-25T21:19:20.910Z,99976.03
2023-03-25T21:21:50.949Z,99976.38
2023-03-25T21:24:22.613Z,99969.78
2023-03-25T21:26:52.635Z,99971.38
2023-03-25T21:29:21.259Z,99980.31
2023-03-25T21:31:49.558Z,99976.03
2023-03-25T21:34:22.612Z,99973.22
2023-03-25T21:36:51.074Z,99970.41
2023-03-25T21:39:44.165Z,99959.06
2023-03-25T21:42:12.552Z,99969.56
2023-03-25T21:44:49.975Z,99964.06
2023-03-25T21:47:18.413Z,99965.16
2023-03-25T21:49:47.162Z,99959.81
2023-03-25T21:52:15.622Z,99960.75
2023-03-25T21:54:43.980Z,99965.88
2023-03-25T21:57:13.609Z,99953.81
2023-03-25T21:59:41.883Z,99957.72
2023-03-25T22:02:14.648Z,99954.81
2023-03-25T22:04:43.293Z,99959.81
2023-03-25T22:07:11.597Z,99955.78
2023-03-25T22:09:41.307Z,99948.69
2023-03-25T22:12:09.552Z,99951.28
2023-03-25T22:14:37.699Z,99945.78
2023-03-25T22:17:16.975Z,99932.72
2023-03-25T22:19:47.585Z,99938.81
2023-03-25T22:22:19.474Z,99934.56
2023-03-25T22:24:49.033Z,99944.59
2023-03-25T22:27:17.835Z,99939.31
2023-03-25T22:29:49.076Z,99930.53
2023-03-25T22:32:17.444Z,99931.16
2023-03-25T22:34:46.344Z,99935.31
2023-03-25T22:37:16.312Z,99929.94
2023-03-25T22:39:44.980Z,99925.03
2023-03-25T22:42:13.351Z,99919.34
2023-03-25T22:44:45.067Z,99921.41
2023-03-25T22:47:13.381Z,99922.63
2023-03-25T22:49:44.624Z,99925.91
2023-03-25T22:52:13.122Z,99921.13
2023-03-25T22:54:41.664Z,99928.34
2023-03-25T22:57:09.722Z,99922.25
2023-03-25T22:59:39.790Z,99922.50
2023-03-25T23:02:08.332Z,99927.63
2023-03-25T23:04:37.258Z,99925.53
2023-03-25T23:07:08.359Z,99929.31
2023-03-25T23:09:45.285Z,99921.03
2023-03-25T23:12:21.415Z,99911.41
2023-03-25T23:14:53.146Z,99916.13
2023-03-25T23:17:25.740Z,99910.19
2023-03-25T23:19:53.949Z,99924.84
2023-03-25T23:22:25.461Z,99908.22
2023-03-25T23:24:53.858Z,99900.78
2023-03-25T23:27:22.749Z,99903.47
2023-03-25T23:29:54.015Z,99903.00
2023-03-25T23:32:22.858Z,99893.72
2023-03-25T23:34:51.477Z,99903.69
2023-03-25T23:37:19.985Z,99902.38
2023-03-25T23:39:53.533Z,99898.34
2023-03-25T23:42:23.306Z,99892.00
2023-03-25T23:45:03.835Z,99889.34
2023-03-25T23:47:34.543Z,99899.94
2023-03-25T23:50:02.593Z,99897.84
2023-03-25T23:52:34.173Z,99891.41
2023-03-25T23:55:03.226Z,99891.03
2023-03-25T23:57:31.938Z,99887.63
